createdAt,value
2018-09-08T00:00:05.062Z,23.9
2018-09-08T00:02:04.756Z,23.8
2018-09-08T00:04:08.067Z,23.8
2018-09-08T00:06:07.844Z,23.8
2018-09-08T00:08:05.078Z,23.8
2018-09-08T00:10:09.832Z,23.8
2018-09-08T00:12:05.591Z,23.8
2018-09-08T00:14:05.299Z,23.8
2018-09-08T00:16:05.501Z,23.8
2018-09-08T00:18:05.101Z,23.8
2018-09-08T00:20:07.862Z,23.9
2018-09-08T00:22:04.705Z,23.9
2018-09-08T00:24:05.406Z,23.9
2018-09-08T00:26:05.229Z,23.8
2018-09-08T00:28:04.900Z,23.9
2018-09-08T00:30:04.797Z,23.8
2018-09-08T00:32:05.454Z,23.9
2018-09-08T00:34:05.214Z,23.8
2018-09-08T00:36:04.957Z,23.8
2018-09-08T00:38:04.660Z,23.7
2018-09-08T00:40:05.407Z,23.8
2018-09-08T00:42:05.186Z,23.7
2018-09-08T00:44:04.851Z,23.7
2018-09-08T00:46:05.547Z,23.7
2018-09-08T00:48:05.258Z,23.7
2018-09-08T00:50:05.159Z,23.7
2018-09-08T00:52:04.839Z,23.6
2018-09-08T00:54:05.639Z,23.6
2018-09-08T00:56:05.330Z,23.6
2018-09-08T00:58:05.015Z,23.5
2018-09-08T01:00:04.885Z,23.3
2018-09-08T01:02:05.573Z,23.2
2018-09-08T01:04:05.305Z,23
2018-09-08T01:06:05.015Z,22.9
2018-09-08T01:08:04.740Z,22.9
2018-09-08T01:10:05.551Z,22.8
2018-09-08T01:12:04.683Z,22.7
2018-09-08T01:14:08.039Z,22.7
2018-09-08T01:16:04.753Z,22.7
2018-09-08T01:18:04.725Z,22.6
2018-09-08T01:20:07.940Z,22.6
2018-09-08T01:22:04.682Z,22.6
2018-09-08T01:24:05.403Z,22.6
2018-09-08T01:26:07.761Z,22.3
2018-09-08T01:28:05.420Z,22.3
2018-09-08T01:30:05.161Z,22.3
2018-09-08T01:32:04.967Z,22.4
2018-09-08T01:34:04.653Z,22.2
2018-09-08T01:36:05.359Z,22.1
2018-09-08T01:38:08.081Z,22.1
2018-09-08T01:40:05.341Z,22.1
2018-09-08T01:42:07.638Z,22.2
2018-09-08T01:44:04.904Z,22.1
2018-09-08T01:46:05.120Z,22.1
2018-09-08T01:48:04.853Z,22.1
2018-09-08T01:50:13.135Z,22.1
2018-09-08T01:52:04.894Z,22.1
2018-09-08T01:54:05.171Z,22
2018-09-08T01:56:04.885Z,22
2018-09-08T01:58:04.651Z,21.9
2018-09-08T02:00:05.353Z,22
2018-09-08T02:02:05.151Z,21.9
2018-09-08T02:04:04.812Z,21.8
2018-09-08T02:06:08.039Z,21.8
2018-09-08T02:08:04.830Z,21.8
2018-09-08T02:10:05.541Z,21.7
2018-09-08T02:12:05.228Z,21.7
2018-09-08T02:14:12.517Z,21.4
2018-09-08T02:16:08.034Z,21.5
2018-09-08T02:18:07.436Z,21.5
2018-09-08T02:20:07.657Z,21.6
2018-09-08T02:22:05.373Z,21.6
2018-09-08T02:24:05.031Z,21.6
2018-09-08T02:26:05.231Z,21.5
2018-09-08T02:28:04.965Z,21.5
2018-09-08T02:30:04.658Z,21.6
2018-09-08T02:32:05.464Z,21.5
2018-09-08T02:34:05.170Z,21.5
2018-09-08T02:36:04.881Z,21.6
2018-09-08T02:38:12.838Z,21.7
2018-09-08T02:40:04.700Z,21.7
2018-09-08T02:42:05.442Z,21.7
2018-09-08T02:44:07.764Z,21.8
2018-09-08T02:46:08.113Z,21.8
2018-09-08T02:48:04.871Z,21.8
2018-09-08T02:50:07.626Z,21.9
2018-09-08T02:52:04.879Z,21.8
2018-09-08T02:54:05.620Z,21.8
2018-09-08T02:56:05.308Z,21.8
2018-09-08T02:58:12.624Z,21.7
2018-09-08T03:00:05.401Z,21.7
2018-09-08T03:02:05.098Z,21.6
2018-09-08T03:04:07.248Z,21.6
2018-09-08T03:06:05.530Z,21.6
2018-09-08T03:08:07.361Z,21.7
2018-09-08T03:10:05.145Z,21.7
2018-09-08T03:12:04.897Z,21.7
2018-09-08T03:14:04.679Z,21.6
2018-09-08T03:16:05.415Z,21.5
2018-09-08T03:18:05.440Z,21.5
2018-09-08T03:20:05.102Z,21.5
2018-09-08T03:22:04.876Z,21.4
2018-09-08T03:24:05.594Z,21.3
2018-09-08T03:26:05.310Z,21.2
2018-09-08T03:28:04.976Z,21.2
2018-09-08T03:30:05.162Z,21.2
2018-09-08T03:32:04.921Z,21.1
2018-09-08T03:34:04.718Z,21.1
2018-09-08T03:36:05.386Z,21.1
2018-09-08T03:38:05.077Z,21.1
2018-09-08T03:40:07.387Z,21.1
2018-09-08T03:42:05.094Z,21.1
2018-09-08T03:44:04.803Z,21.1
2018-09-08T03:46:08.116Z,21.1
2018-09-08T03:48:09.896Z,21.1
2018-09-08T03:50:04.650Z,21.1
2018-09-08T03:52:07.894Z,21.2
2018-09-08T03:54:05.627Z,21.1
2018-09-08T03:56:05.305Z,21.1
2018-09-08T03:58:05.034Z,21.1
2018-09-08T04:00:04.765Z,21.2
2018-09-08T04:02:05.500Z,21.2
2018-09-08T04:04:05.213Z,21.2
2018-09-08T04:06:05.487Z,21.1
2018-09-08T04:08:10.266Z,21.1
2018-09-08T04:10:10.135Z,21.2
2018-09-08T04:12:04.824Z,21.2
2018-09-08T04:14:08.058Z,21.1
2018-09-08T04:16:04.793Z,21.2
2018-09-08T04:18:07.284Z,21.2
2018-09-08T04:20:05.383Z,21.2
2018-09-08T04:22:07.604Z,21.2
2018-09-08T04:24:05.326Z,21.2
2018-09-08T04:26:05.003Z,21.1
2018-09-08T04:28:04.725Z,21.2
2018-09-08T04:30:16.186Z,21.1
2018-09-08T04:32:05.075Z,21.1
2018-09-08T04:34:09.892Z,21.3
2018-09-08T04:36:05.531Z,21.3
2018-09-08T04:38:05.244Z,21.2
2018-09-08T04:40:05.519Z,21.1
2018-09-08T04:42:05.184Z,21.1
2018-09-08T04:44:04.829Z,21.1
2018-09-08T04:46:05.525Z,21.2
2018-09-08T04:48:05.260Z,21.2
2018-09-08T04:50:07.499Z,21.1
2018-09-08T04:52:05.208Z,21.1
2018-09-08T04:54:07.460Z,21
2018-09-08T04:56:09.863Z,21.1
2018-09-08T04:58:05.057Z,21
2018-09-08T05:00:04.747Z,21.2
2018-09-08T05:02:05.470Z,21.2
2018-09-08T05:04:05.142Z,21.1
2018-09-08T05:06:04.861Z,21.1
2018-09-08T05:08:18.143Z,20.6
2018-09-08T05:10:04.798Z,20.6
2018-09-08T05:12:05.034Z,20.7
2018-09-08T05:14:05.308Z,20.8
2018-09-08T05:16:07.554Z,21
2018-09-08T05:18:05.570Z,21
2018-09-08T05:20:05.296Z,20.8
2018-09-08T05:22:05.008Z,20.9
2018-09-08T05:24:04.838Z,20.9
2018-09-08T05:26:05.512Z,20.9
2018-09-08T05:28:05.492Z,20.9
2018-09-08T05:30:05.189Z,20.9
2018-09-08T05:32:04.896Z,20.9
2018-09-08T05:34:05.085Z,20.8
2018-09-08T05:36:07.367Z,20.9
2018-09-08T05:38:05.109Z,20.9
2018-09-08T05:40:04.858Z,20.9
2018-09-08T05:42:08.098Z,20.8
2018-09-08T05:44:04.813Z,20.8
2018-09-08T05:46:05.487Z,20.9
2018-09-08T05:48:04.722Z,21
2018-09-08T05:50:05.418Z,21
2018-09-08T05:52:05.161Z,21
2018-09-08T05:54:04.834Z,21
2018-09-08T05:56:05.541Z,21.1
2018-09-08T05:58:05.195Z,21
2018-09-08T06:00:07.396Z,21
2018-09-08T06:02:05.126Z,21
2018-09-08T06:04:04.818Z,20.9
2018-09-08T06:06:05.498Z,20.9
2018-09-08T06:08:04.769Z,21
2018-09-08T06:10:07.992Z,21.1
2018-09-08T06:12:07.566Z,21.1
2018-09-08T06:14:05.307Z,21.1
2018-09-08T06:16:05.548Z,21.2
2018-09-08T06:18:04.734Z,21.1
2018-09-08T06:20:07.964Z,21.1
2018-09-08T06:22:04.648Z,21.1
2018-09-08T06:24:07.871Z,21.1
2018-09-08T06:26:10.606Z,21.2
2018-09-08T06:28:04.880Z,21.2
2018-09-08T06:30:08.118Z,21.2
2018-09-08T06:32:07.861Z,21.3
2018-09-08T06:34:05.829Z,21.2
2018-09-08T06:36:05.522Z,21.1
2018-09-08T06:38:05.294Z,21.2
2018-09-08T06:40:07.539Z,21.3
2018-09-08T06:42:04.785Z,21.3
2018-09-08T06:44:05.492Z,21.4
2018-09-08T06:46:05.232Z,21.4
2018-09-08T06:48:07.735Z,21.5
2018-09-08T06:50:04.988Z,21.5
2018-09-08T06:52:04.746Z,21.5
2018-09-08T06:54:05.639Z,21.5
2018-09-08T06:56:05.349Z,21.4
2018-09-08T06:58:05.039Z,21.5
2018-09-08T07:00:04.725Z,21.5
2018-09-08T07:02:05.461Z,21.5
2018-09-08T07:04:05.258Z,21.5
2018-09-08T07:06:05.417Z,21.5
2018-09-08T07:08:05.141Z,21.4
2018-09-08T07:10:07.923Z,21.5
2018-09-08T07:12:07.174Z,21.6
2018-09-08T07:14:09.912Z,21.6
2018-09-08T07:16:08.128Z,21.6
2018-09-08T07:18:07.621Z,21.7
2018-09-08T07:20:07.885Z,21.8
2018-09-08T07:22:05.117Z,21.8
2018-09-08T07:24:07.384Z,21.8
2018-09-08T07:26:04.663Z,21.8
2018-09-08T07:28:05.362Z,21.8
2018-09-08T07:30:05.109Z,21.8
2018-09-08T07:32:05.473Z,21.7
2018-09-08T07:36:36.336Z,21.9
2018-09-08T07:38:05.054Z,21.9
2018-09-08T07:40:04.766Z,21.8
2018-09-08T07:42:04.964Z,21.9
2018-09-08T07:44:04.665Z,21.8
2018-09-08T07:46:05.439Z,21.7
2018-09-08T07:48:05.565Z,21.8
2018-09-08T07:50:05.272Z,21.8
2018-09-08T07:52:08.121Z,21.8
2018-09-08T07:54:05.080Z,21.8
2018-09-08T07:56:07.809Z,21.9
2018-09-08T07:58:05.474Z,21.9
2018-09-08T08:00:07.706Z,22.1
2018-09-08T08:02:05.344Z,22.1
2018-09-08T08:04:05.017Z,22.1
2018-09-08T08:06:04.835Z,22
2018-09-08T08:08:05.063Z,21.9
2018-09-08T08:10:04.770Z,21.9
2018-09-08T08:12:08.017Z,21.9
2018-09-08T08:14:04.699Z,21.9
2018-09-08T08:16:10.514Z,22
2018-09-08T08:18:05.436Z,22
2018-09-08T08:20:07.695Z,22
2018-09-08T08:22:05.348Z,22
2018-09-08T08:24:05.076Z,22
2018-09-08T08:26:04.801Z,22
2018-09-08T08:28:10.564Z,22.2
2018-09-08T08:30:07.777Z,22
2018-09-08T08:32:05.529Z,22
2018-09-08T08:34:05.238Z,22
2018-09-08T08:36:05.459Z,22
2018-09-08T08:38:07.655Z,22.1
2018-09-08T08:40:05.325Z,22.1
2018-09-08T08:42:04.973Z,22.2
2018-09-08T08:44:07.344Z,22.1
2018-09-08T08:46:05.064Z,22.2
2018-09-08T08:48:04.791Z,22.1
2018-09-08T08:50:05.433Z,22.2
2018-09-08T08:52:17.823Z,22.3
2018-09-08T08:54:07.286Z,22.2
2018-09-08T08:56:07.604Z,22.3
2018-09-08T08:58:05.281Z,22.3
2018-09-08T09:00:04.942Z,22.4
2018-09-08T09:02:04.599Z,22.3
2018-09-08T09:04:05.377Z,22.4
2018-09-08T09:06:10.133Z,22.3
2018-09-08T09:08:04.900Z,22.3
2018-09-08T09:10:05.621Z,22.3
2018-09-08T09:12:05.295Z,22.3
2018-09-08T09:14:04.987Z,22.5
2018-09-08T09:16:04.748Z,22.5
2018-09-08T09:18:04.614Z,22.6
2018-09-08T09:20:05.277Z,22.6
2018-09-08T09:22:10.025Z,22.6
2018-09-08T09:24:09.859Z,22.6
2018-09-08T09:26:05.079Z,22.6
2018-09-08T09:28:10.441Z,22.8
2018-09-08T09:30:05.113Z,22.8
2018-09-08T09:32:04.880Z,22.9
2018-09-08T09:34:05.181Z,22.8
2018-09-08T09:36:04.921Z,22.9
2018-09-08T09:38:05.127Z,22.9
2018-09-08T09:40:04.812Z,22.7
2018-09-08T09:42:15.607Z,22.7
2018-09-08T09:44:07.891Z,22.6
2018-09-08T09:46:04.739Z,22.6
2018-09-08T09:48:05.400Z,22.7
2018-09-08T09:50:05.135Z,22.8
2018-09-08T09:52:05.462Z,22.8
2018-09-08T09:54:05.160Z,22.8
2018-09-08T09:56:04.961Z,22.7
2018-09-08T09:58:09.728Z,22.6
2018-09-08T10:00:05.386Z,22.6
2018-09-08T10:02:05.079Z,22.6
2018-09-08T10:04:04.849Z,22.6
2018-09-08T10:06:05.593Z,22.6
2018-09-08T10:08:10.382Z,22.5
2018-09-08T10:10:04.665Z,22.6
2018-09-08T10:12:07.573Z,22.6
2018-09-08T10:14:05.523Z,22.6
2018-09-08T10:16:05.245Z,22.6
2018-09-08T10:18:05.127Z,22.7
2018-09-08T10:20:04.812Z,22.6
2018-09-08T10:22:05.504Z,22.7
2018-09-08T10:24:05.648Z,22.5
2018-09-08T10:26:05.530Z,22.5
2018-09-08T10:28:05.083Z,22.5
2018-09-08T10:30:04.813Z,22.5
2018-09-08T10:32:05.270Z,22.5
2018-09-08T10:34:05.198Z,22.5
2018-09-08T10:36:04.860Z,22.4
2018-09-08T10:38:05.512Z,22.4
2018-09-08T10:40:05.212Z,22.5
2018-09-08T10:42:05.069Z,22.4
2018-09-08T10:44:04.841Z,22.4
2018-09-08T10:46:05.066Z,22.2
2018-09-08T10:48:04.847Z,22.3
2018-09-08T10:50:13.135Z,22.5
2018-09-08T10:52:07.384Z,22.6
2018-09-08T10:54:10.147Z,22.6
2018-09-08T10:56:04.822Z,22.7
2018-09-08T10:58:05.047Z,22.6
2018-09-08T11:00:04.751Z,22.6
2018-09-08T11:02:08.259Z,22.7
2018-09-08T11:04:04.657Z,22.7
2018-09-08T11:06:05.336Z,22.7
2018-09-08T11:08:07.576Z,22.7
2018-09-08T11:10:05.455Z,22.7
2018-09-08T11:12:05.197Z,22.8
2018-09-08T11:14:04.907Z,22.9
2018-09-08T11:16:04.892Z,22.9
2018-09-08T11:18:04.812Z,22.9
2018-09-08T11:20:05.669Z,22.9
2018-09-08T11:22:05.493Z,22.9
2018-09-08T11:24:10.296Z,22.9
2018-09-08T11:26:10.017Z,22.9
2018-09-08T11:28:05.281Z,22.9
2018-09-08T11:30:05.079Z,22.8
2018-09-08T11:32:04.958Z,22.9
2018-09-08T11:34:04.771Z,22.9
2018-09-08T11:36:05.590Z,22.9
2018-09-08T11:38:05.460Z,23
2018-09-08T11:40:05.545Z,22.9
2018-09-08T11:42:04.793Z,23
2018-09-08T11:44:05.534Z,23
2018-09-08T11:46:04.817Z,22.9
2018-09-08T11:48:05.031Z,22.9
2018-09-08T11:50:07.359Z,22.9
2018-09-08T11:52:05.162Z,22.9
2018-09-08T11:54:04.910Z,22.9
2018-09-08T11:56:04.625Z,22.9
2018-09-08T11:58:07.837Z,22.9
2018-09-08T12:00:08.031Z,23
2018-09-08T12:02:07.286Z,22.9
2018-09-08T12:04:07.750Z,22.9
2018-09-08T12:06:05.426Z,22.9
2018-09-08T12:08:05.186Z,23
2018-09-08T12:10:07.866Z,23.1
2018-09-08T12:12:07.652Z,23.1
2018-09-08T12:14:09.907Z,23.1
2018-09-08T12:16:05.597Z,23.1
2018-09-08T12:18:05.561Z,23.1
2018-09-08T12:20:05.259Z,23.1
2018-09-08T12:22:05.060Z,23.2
2018-09-08T12:24:15.672Z,23.2
2018-09-08T12:26:10.438Z,23.1
2018-09-08T12:28:07.665Z,23.1
2018-09-08T12:30:05.439Z,23.1
2018-09-08T12:32:07.708Z,23.1
2018-09-08T12:34:05.448Z,23.1
2018-09-08T12:36:05.455Z,23.1
2018-09-08T12:38:05.558Z,23.1
2018-09-08T12:40:11.013Z,23.2
2018-09-08T12:42:05.263Z,23.1
2018-09-08T12:44:04.938Z,23.2
2018-09-08T12:46:04.663Z,23.1
2018-09-08T12:48:05.373Z,23.1
2018-09-08T12:50:05.043Z,23.1
2018-09-08T12:52:10.002Z,23.2
2018-09-08T12:54:04.835Z,23.2
2018-09-08T12:56:05.587Z,23.2
2018-09-08T12:58:05.295Z,23.2
2018-09-08T13:00:04.934Z,23.2
2018-09-08T13:02:04.680Z,23.2
2018-09-08T13:04:05.473Z,23.3
2018-09-08T13:06:07.929Z,23.2
2018-09-08T13:08:05.298Z,23.2
2018-09-08T13:10:05.195Z,23.1
2018-09-08T13:12:04.971Z,23.1
2018-09-08T13:14:04.688Z,23.1
2018-09-08T13:16:10.199Z,23.1
2018-09-08T13:18:12.707Z,23
2018-09-08T13:20:05.516Z,23
2018-09-08T13:22:05.420Z,23
2018-09-08T13:24:05.112Z,23
2018-09-08T13:26:05.155Z,23
2018-09-08T13:28:09.910Z,23
2018-09-08T13:30:05.615Z,23.1
2018-09-08T13:32:05.544Z,23.1
2018-09-08T13:34:05.246Z,23.1
2018-09-08T13:36:05.487Z,23.1
2018-09-08T13:38:10.289Z,23.2
2018-09-08T13:40:10.048Z,23.2
2018-09-08T13:42:04.756Z,23.2
2018-09-08T13:44:05.657Z,23.2
2018-09-08T13:46:05.581Z,23.2
2018-09-08T13:48:09.925Z,23.1
2018-09-08T13:50:04.718Z,23.1
2018-09-08T13:52:04.947Z,23.1
2018-09-08T13:54:05.152Z,23.1
2018-09-08T13:56:04.845Z,23.1
2018-09-08T13:58:05.542Z,23.1
2018-09-08T14:00:05.310Z,23.2
2018-09-08T14:02:05.060Z,23.2
2018-09-08T14:04:04.889Z,23.2
2018-09-08T14:06:04.898Z,23.2
2018-09-08T14:08:08.148Z,23.2
2018-09-08T14:10:04.932Z,23.2
2018-09-08T14:12:04.636Z,23.2
2018-09-08T14:14:05.341Z,23.2
2018-09-08T14:16:08.180Z,23.3
2018-09-08T14:18:05.077Z,23.3
2018-09-08T14:20:04.814Z,23.2
2018-09-08T14:22:05.260Z,23.2
2018-09-08T14:24:05.134Z,23.3
2018-09-08T14:26:04.848Z,23.3
2018-09-08T14:28:05.566Z,23.3
2018-09-08T14:30:05.213Z,23.2
2018-09-08T14:32:04.935Z,23.3
2018-09-08T14:34:07.177Z,23.3
2018-09-08T14:36:07.364Z,23.3
2018-09-08T14:38:05.018Z,23.3
2018-09-08T14:40:04.708Z,23.3
2018-09-08T14:42:05.450Z,23.3
2018-09-08T14:44:09.697Z,23.3
2018-09-08T14:46:05.403Z,23.3
2018-09-08T14:48:05.334Z,23.3
2018-09-08T14:50:05.016Z,23.3
2018-09-08T14:52:04.699Z,23.3
2018-09-08T14:54:05.375Z,23.4
2018-09-08T14:56:05.538Z,23.4
2018-09-08T14:58:10.348Z,23.4
2018-09-08T15:00:05.126Z,23.3
2018-09-08T15:02:04.845Z,23.4
2018-09-08T15:04:10.624Z,23.4
2018-09-08T15:06:05.323Z,23.4
2018-09-08T15:08:04.983Z,23.4
2018-09-08T15:10:05.371Z,23.3
2018-09-08T15:12:05.570Z,23.3
2018-09-08T15:14:10.366Z,23.3
2018-09-08T15:16:05.124Z,23.3
2018-09-08T15:18:10.153Z,23.3
2018-09-08T15:20:05.500Z,23.3
2018-09-08T15:22:05.212Z,23.3
2018-09-08T15:24:05.115Z,23.4
2018-09-08T15:26:07.378Z,23.4
2018-09-08T15:28:10.223Z,23.4
2018-09-08T15:30:05.421Z,23.3
2018-09-08T15:32:05.119Z,23.4
2018-09-08T15:34:05.323Z,23.4
2018-09-08T15:36:07.574Z,23.4
2018-09-08T15:38:10.308Z,23.4
2018-09-08T15:40:05.061Z,23.4
2018-09-08T15:42:05.019Z,23.4
2018-09-08T15:44:07.957Z,23.4
2018-09-08T15:46:04.710Z,23.4
2018-09-08T15:48:05.067Z,23.4
2018-09-08T15:50:09.816Z,23.4
2018-09-08T15:52:05.554Z,23.4
2018-09-08T15:54:05.264Z,23.4
2018-09-08T15:56:04.995Z,23.4
2018-09-08T15:58:04.813Z,23.4
2018-09-08T16:00:04.763Z,23.4
2018-09-08T16:02:07.937Z,23.4
2018-09-08T16:04:05.623Z,23.4
2018-09-08T16:06:07.840Z,23.4
2018-09-08T16:08:08.251Z,23.4
2018-09-08T16:10:05.506Z,23.4
2018-09-08T16:12:05.364Z,23.4
2018-09-08T16:14:05.568Z,23.4
2018-09-08T16:16:05.393Z,23.4
2018-09-08T16:18:07.383Z,23.4
2018-09-08T16:20:10.078Z,23.3
2018-09-08T16:22:05.382Z,23.3
2018-09-08T16:24:05.156Z,23.3
2018-09-08T16:26:05.523Z,23.3
2018-09-08T16:28:07.878Z,23.4
2018-09-08T16:30:05.580Z,23.4
2018-09-08T16:32:07.924Z,23.4
2018-09-08T16:34:04.775Z,23.4
2018-09-08T16:36:05.539Z,23.5
2018-09-08T16:38:04.745Z,23.5
2018-09-08T16:40:05.476Z,23.4
2018-09-08T16:42:04.720Z,23.5
2018-09-08T16:44:18.134Z,23.5
2018-09-08T16:46:05.331Z,23.5
2018-09-08T16:48:08.105Z,23.4
2018-09-08T16:50:05.473Z,23.4
2018-09-08T16:52:05.213Z,23.4
2018-09-08T16:54:04.911Z,23.4
2018-09-08T16:56:05.702Z,23.4
2018-09-08T16:58:05.553Z,23.5
2018-09-08T17:00:04.704Z,23.5
2018-09-08T17:02:05.359Z,23.5
2018-09-08T17:04:10.148Z,23.4
2018-09-08T17:06:05.017Z,23.4
2018-09-08T17:08:04.713Z,23.4
2018-09-08T17:10:08.000Z,23.5
2018-09-08T17:12:04.723Z,23.4
2018-09-08T17:14:09.983Z,23.5
2018-09-08T17:16:10.249Z,23.5
2018-09-08T17:18:05.341Z,23.5
2018-09-08T17:20:05.083Z,23.5
2018-09-08T17:22:07.321Z,23.5
2018-09-08T17:24:12.598Z,23.5
2018-09-08T17:26:05.330Z,23.5
2018-09-08T17:28:05.321Z,23.6
2018-09-08T17:30:04.635Z,23.6
2018-09-08T17:32:05.322Z,23.5
2018-09-08T17:34:07.662Z,23.7
2018-09-08T17:36:05.200Z,23.7
2018-09-08T17:38:07.419Z,23.6
2018-09-08T17:40:07.137Z,23.7
2018-09-08T17:42:05.389Z,23.7
2018-09-08T17:44:07.602Z,23.6
2018-09-08T17:46:05.275Z,23.6
2018-09-08T17:48:04.984Z,23.7
2018-09-08T17:50:04.637Z,23.7
2018-09-08T17:52:05.396Z,23.7
2018-09-08T17:54:15.622Z,23.7
2018-09-08T17:56:05.298Z,23.7
2018-09-08T17:58:07.627Z,23.7
2018-09-08T18:00:07.448Z,23.7
2018-09-08T18:02:07.697Z,23.7
2018-09-08T18:04:05.393Z,23.7
2018-09-08T18:06:07.593Z,23.6
2018-09-08T18:08:05.375Z,23.6
2018-09-08T18:10:05.597Z,23.6
2018-09-08T18:12:05.112Z,23.6
2018-09-08T18:14:10.416Z,23.7
2018-09-08T18:16:07.141Z,23.7
2018-09-08T18:18:04.892Z,23.6
2018-09-08T18:20:04.817Z,23.7
2018-09-08T18:22:05.523Z,23.7
2018-09-08T18:24:05.669Z,23.6
2018-09-08T18:26:07.954Z,23.6
2018-09-08T18:28:04.643Z,23.6
2018-09-08T18:30:09.938Z,23.7
2018-09-08T18:32:04.661Z,23.7
2018-09-08T18:34:05.357Z,23.7
2018-09-08T18:36:05.053Z,23.7
2018-09-08T18:38:07.303Z,23.6
2018-09-08T18:40:05.018Z,23.6
2018-09-08T18:42:04.749Z,23.7
2018-09-08T18:44:04.929Z,23.6
2018-09-08T18:46:05.192Z,23.7
2018-09-08T18:48:10.057Z,23.7
2018-09-08T18:50:05.104Z,23.7
2018-09-08T18:52:04.867Z,23.7
2018-09-08T18:54:05.537Z,23.7
2018-09-08T18:56:05.346Z,23.7
2018-09-08T18:58:07.603Z,23.7
2018-09-08T19:00:07.850Z,23.7
2018-09-08T19:02:05.598Z,23.7
2018-09-08T19:04:14.969Z,23.7
2018-09-08T19:06:04.637Z,23.7
2018-09-08T19:08:07.837Z,23.7
2018-09-08T19:10:05.531Z,23.7
2018-09-08T19:12:05.285Z,23.6
2018-09-08T19:14:06.456Z,23.6
2018-09-08T19:16:05.176Z,23.6
2018-09-08T19:18:05.028Z,23.6
2018-09-08T19:20:04.838Z,23.6
2018-09-08T19:22:04.733Z,23.6
2018-09-08T19:24:05.424Z,23.6
2018-09-08T19:26:05.133Z,23.6
2018-09-08T19:28:05.409Z,23.6
2018-09-08T19:30:05.061Z,23.7
2018-09-08T19:32:07.325Z,23.7
2018-09-08T19:34:07.518Z,23.6
2018-09-08T19:36:05.338Z,23.6
2018-09-08T19:38:05.027Z,23.6
2018-09-08T19:40:07.281Z,23.7
2018-09-08T19:42:05.491Z,23.7
2018-09-08T19:44:05.127Z,23.7
2018-09-08T19:46:04.927Z,23.7
2018-09-08T19:48:07.175Z,23.6
2018-09-08T19:50:04.924Z,23.6
2018-09-08T19:52:05.608Z,23.6
2018-09-08T19:54:07.931Z,23.6
2018-09-08T19:56:04.693Z,23.6
2018-09-08T19:58:07.532Z,23.7
2018-09-08T20:00:05.246Z,23.6
2018-09-08T20:02:05.038Z,23.7
2018-09-08T20:04:05.041Z,23.7
2018-09-08T20:06:04.762Z,23.7
2018-09-08T20:08:05.485Z,23.6
2018-09-08T20:10:05.290Z,23.5
2018-09-08T20:12:04.997Z,23.6
2018-09-08T20:14:04.707Z,23.6
2018-09-08T20:16:05.490Z,23.7
2018-09-08T20:18:05.447Z,23.6
2018-09-08T20:20:05.160Z,23.7
2018-09-08T20:22:07.406Z,23.7
2018-09-08T20:24:05.095Z,23.7
2018-09-08T20:26:07.363Z,23.7
2018-09-08T20:28:07.826Z,23.7
2018-09-08T20:30:05.569Z,23.7
2018-09-08T20:32:10.337Z,23.7
2018-09-08T20:34:05.062Z,23.6
2018-09-08T20:36:05.372Z,23.6
2018-09-08T20:38:05.107Z,23.6
2018-09-08T20:40:04.946Z,23.6
2018-09-08T20:42:04.633Z,23.7
2018-09-08T20:44:05.312Z,23.7
2018-09-08T20:46:05.117Z,23.6
2018-09-08T20:48:04.861Z,23.7
2018-09-08T20:50:05.574Z,23.7
2018-09-08T20:52:05.519Z,23.7
2018-09-08T20:54:04.675Z,23.7
2018-09-08T20:56:05.388Z,23.7
2018-09-08T20:58:05.142Z,23.7
2018-09-08T21:00:07.400Z,23.7
2018-09-08T21:02:05.082Z,23.6
2018-09-08T21:04:04.783Z,23.6
2018-09-08T21:06:05.418Z,23.7
2018-09-08T21:08:05.088Z,23.8
2018-09-08T21:10:04.774Z,23.7
2018-09-08T21:12:05.436Z,23.7
2018-09-08T21:14:09.737Z,23.7
2018-09-08T21:16:05.443Z,23.7
2018-09-08T21:18:05.564Z,23.7
2018-09-08T21:20:05.281Z,23.7
2018-09-08T21:22:05.530Z,23.7
2018-09-08T21:24:05.404Z,23.7
2018-09-08T21:26:05.581Z,23.7
2018-09-08T21:28:04.714Z,23.7
2018-09-08T21:30:05.483Z,23.7
2018-09-08T21:32:09.764Z,23.9
2018-09-08T21:34:05.421Z,23.8
2018-09-08T21:36:10.169Z,23.9
2018-09-08T21:38:04.814Z,23.8
2018-09-08T21:40:05.515Z,23.8
2018-09-08T21:42:07.741Z,23.8
2018-09-08T21:44:05.148Z,23.8
2018-09-08T21:46:05.404Z,23.8
2018-09-08T21:48:05.175Z,23.8
2018-09-08T21:50:04.924Z,23.8
2018-09-08T21:52:04.675Z,23.8
2018-09-08T21:54:05.420Z,23.8
2018-09-08T21:56:04.646Z,23.9
2018-09-08T21:58:04.846Z,23.9
2018-09-08T22:00:08.082Z,24
2018-09-08T22:02:07.333Z,24
2018-09-08T22:04:05.034Z,24
2018-09-08T22:06:12.312Z,24
2018-09-08T22:08:07.554Z,24
2018-09-08T22:10:12.837Z,24
2018-09-08T22:12:05.601Z,24
2018-09-08T22:14:05.340Z,24.1
2018-09-08T22:16:04.787Z,24.1
2018-09-08T22:18:04.905Z,24.1
2018-09-08T22:20:05.580Z,24.1
2018-09-08T22:22:04.881Z,24.1
2018-09-08T22:24:05.159Z,24.2
2018-09-08T22:26:05.419Z,24.1
2018-09-08T22:28:05.155Z,24.2
2018-09-08T22:30:04.897Z,24.1
2018-09-08T22:32:05.644Z,24.2
2018-09-08T22:34:04.943Z,24.2
2018-09-08T22:36:07.192Z,24.1
2018-09-08T22:38:05.407Z,24.1
2018-09-08T22:40:05.103Z,24.2
2018-09-08T22:42:04.783Z,24.2
2018-09-08T22:44:05.489Z,24.2
2018-09-08T22:46:12.824Z,24.2
2018-09-08T22:48:05.512Z,24.2
2018-09-08T22:50:05.243Z,24.2
2018-09-08T22:52:05.533Z,24.2
2018-09-08T22:54:04.804Z,24.2
2018-09-08T22:56:05.464Z,24.2
2018-09-08T22:58:05.183Z,24.1
2018-09-08T23:00:04.999Z,24.1
2018-09-08T23:02:04.702Z,24.1
2018-09-08T23:04:05.464Z,24
2018-09-08T23:06:05.237Z,24
2018-09-08T23:08:04.914Z,24
2018-09-08T23:10:05.661Z,24
2018-09-08T23:12:05.324Z,24
2018-09-08T23:14:05.001Z,24
2018-09-08T23:16:04.738Z,23.9
2018-09-08T23:18:08.183Z,24
2018-09-08T23:20:04.854Z,24
2018-09-08T23:22:05.125Z,24
2018-09-08T23:24:04.961Z,24
2018-09-08T23:26:04.895Z,24
2018-09-08T23:28:05.598Z,24
2018-09-08T23:30:05.426Z,24
2018-09-08T23:32:05.130Z,24
2018-09-08T23:34:07.363Z,24
2018-09-08T23:36:05.026Z,24
2018-09-08T23:38:04.771Z,24.1
2018-09-08T23:40:05.502Z,24.2
2018-09-08T23:42:07.690Z,24.3
2018-09-08T23:44:05.371Z,24.2
2018-09-08T23:46:05.135Z,24.3
2018-09-08T23:48:04.856Z,24.3
2018-09-08T23:50:08.140Z,24.3
2018-09-08T23:52:07.338Z,24.3
2018-09-08T23:54:04.996Z,24.3
2018-09-08T23:56:07.228Z,24.3
2018-09-08T23:58:04.926Z,24.3
